createdAt,value
2024-01-14T00:02:04.476Z,95.40
2024-01-14T00:06:06.734Z,94.80
2024-01-14T00:10:09.053Z,94.60
2024-01-14T00:14:11.456Z,95.00
2024-01-14T00:18:13.680Z,94.80
2024-01-14T00:22:17.441Z,94.80
2024-01-14T00:26:19.354Z,94.80
2024-01-14T00:30:21.207Z,94.20
2024-01-14T00:34:23.273Z,95.00
2024-01-14T00:38:25.104Z,95.10
2024-01-14T00:42:27.178Z,96.70
2024-01-14T00:46:47.965Z,96.70
2024-01-14T00:50:49.859Z,97.50
2024-01-14T00:54:51.833Z,97.10
2024-01-14T00:58:53.636Z,96.30
2024-01-14T01:02:55.677Z,96.00
2024-01-14T01:06:57.515Z,95.70
2024-01-14T01:10:59.393Z,95.30
2024-01-14T01:15:01.558Z,94.80
2024-01-14T01:19:03.866Z,95.20
2024-01-14T01:23:05.853Z,95.00
2024-01-14T01:27:07.824Z,95.00
2024-01-14T01:31:09.839Z,94.80
2024-01-14T01:35:11.879Z,94.90
2024-01-14T01:39:15.411Z,94.80
2024-01-14T01:43:17.278Z,94.60
2024-01-14T01:47:19.791Z,94.20
2024-01-14T01:51:22.442Z,94.30
2024-01-14T01:55:24.665Z,94.40
2024-01-14T01:59:27.465Z,94.30
2024-01-14T02:03:34.355Z,94.80
2024-01-14T02:07:36.937Z,94.80
2024-01-14T02:11:38.821Z,94.40
2024-01-14T02:15:40.809Z,94.30
2024-01-14T02:19:42.823Z,94.50
2024-01-14T02:23:47.025Z,94.70
2024-01-14T02:27:49.675Z,95.20
2024-01-14T02:31:51.470Z,94.80
2024-01-14T02:35:53.407Z,95.70
2024-01-14T02:39:55.277Z,95.20
2024-01-14T02:43:57.079Z,94.90
2024-01-14T02:47:59.428Z,94.70
2024-01-14T02:52:01.361Z,94.30
2024-01-14T02:56:03.442Z,94.40
2024-01-14T03:00:07.798Z,94.90
2024-01-14T03:04:09.641Z,94.70
2024-01-14T03:08:11.648Z,94.40
2024-01-14T03:12:13.542Z,94.20
2024-01-14T03:16:15.495Z,94.20
2024-01-14T03:20:17.876Z,94.00
2024-01-14T03:24:19.734Z,94.00
2024-01-14T03:28:21.906Z,94.20
2024-01-14T03:32:23.738Z,94.10
2024-01-14T03:36:25.656Z,94.10
2024-01-14T03:40:27.497Z,94.10
2024-01-14T03:44:29.313Z,94.20
2024-01-14T03:48:31.354Z,95.00
2024-01-14T03:52:33.183Z,95.20
2024-01-14T03:56:35.050Z,94.80
2024-01-14T04:00:37.138Z,94.70
2024-01-14T04:04:39.059Z,94.40
2024-01-14T04:08:40.922Z,94.40
2024-01-14T04:12:43.131Z,94.60
2024-01-14T04:16:45.059Z,94.20
2024-01-14T04:20:46.930Z,94.60
2024-01-14T04:24:48.985Z,95.20
2024-01-14T04:28:51.749Z,95.10
2024-01-14T04:32:54.437Z,94.70
2024-01-14T04:36:56.614Z,94.70
2024-01-14T04:40:58.434Z,94.40
2024-01-14T04:45:00.388Z,94.10
2024-01-14T04:49:02.479Z,93.80
2024-01-14T04:53:04.621Z,94.00
2024-01-14T04:57:06.504Z,94.40
2024-01-14T05:01:08.454Z,94.80
2024-01-14T05:05:10.408Z,95.20
2024-01-14T05:09:12.308Z,94.70
2024-01-14T05:13:14.196Z,94.40
2024-01-14T05:17:16.138Z,94.40
2024-01-14T05:21:18.326Z,94.50
2024-01-14T05:25:20.245Z,94.70
2024-01-14T05:29:21.999Z,96.20
2024-01-14T05:33:24.125Z,96.10
2024-01-14T05:37:26.043Z,95.50
2024-01-14T05:41:27.916Z,95.30
2024-01-14T05:45:29.803Z,94.70
2024-01-14T05:49:31.810Z,96.60
2024-01-14T05:53:33.792Z,96.10
2024-01-14T05:57:35.855Z,97.30
2024-01-14T06:01:38.213Z,96.60
2024-01-14T06:05:40.459Z,96.30
2024-01-14T06:09:42.340Z,95.90
2024-01-14T06:13:44.153Z,95.20
2024-01-14T06:17:46.107Z,94.80
2024-01-14T06:21:48.003Z,94.50
2024-01-14T06:25:49.863Z,94.00
2024-01-14T06:29:51.899Z,94.50
2024-01-14T06:33:54.015Z,94.70
2024-01-14T06:37:55.976Z,95.60
2024-01-14T06:41:57.813Z,95.40
2024-01-14T06:45:59.664Z,95.10
2024-01-14T06:50:10.543Z,94.70
2024-01-14T06:54:18.935Z,94.60
2024-01-14T06:58:22.310Z,94.10
2024-01-14T07:02:24.190Z,94.30
2024-01-14T07:06:26.171Z,94.00
2024-01-14T07:10:28.089Z,93.90
2024-01-14T07:14:29.952Z,93.60
2024-01-14T07:18:32.021Z,93.50
2024-01-14T07:22:34.097Z,93.70
2024-01-14T07:26:36.122Z,93.60
2024-01-14T07:30:37.977Z,93.40
2024-01-14T07:34:40.023Z,93.20
2024-01-14T07:38:42.116Z,93.50
2024-01-14T07:42:44.831Z,93.60
2024-01-14T07:46:46.734Z,93.80
2024-01-14T07:50:48.615Z,93.70
2024-01-14T07:54:50.425Z,93.50
2024-01-14T07:58:52.292Z,93.00
2024-01-14T08:02:54.280Z,93.00
2024-01-14T08:06:56.136Z,93.20
2024-01-14T08:10:57.955Z,93.10
2024-01-14T08:14:59.864Z,93.30
2024-01-14T08:19:01.978Z,94.00
2024-01-14T08:23:04.071Z,93.80
2024-01-14T08:27:05.969Z,94.10
2024-01-14T08:31:08.145Z,93.50
2024-01-14T08:35:12.163Z,93.60
2024-01-14T08:39:14.186Z,94.40
2024-01-14T08:43:16.223Z,94.10
2024-01-14T08:47:18.124Z,94.00
2024-01-14T08:51:20.020Z,94.30
2024-01-14T08:55:22.577Z,94.50
2024-01-14T08:59:24.539Z,94.20
2024-01-14T09:03:26.555Z,94.60
2024-01-14T09:07:28.558Z,94.40
2024-01-14T09:11:30.370Z,94.20
2024-01-14T09:15:32.568Z,94.90
2024-01-14T09:19:34.858Z,94.90
2024-01-14T09:23:36.830Z,95.70
2024-01-14T09:27:38.908Z,95.90
2024-01-14T09:31:40.886Z,95.20
2024-01-14T09:35:43.974Z,95.00
2024-01-14T09:39:45.982Z,95.10
2024-01-14T09:43:51.511Z,94.70
2024-01-14T09:47:55.797Z,94.30
2024-01-14T09:51:58.274Z,94.80
2024-01-14T09:56:02.133Z,94.50
2024-01-14T10:00:06.779Z,94.60
2024-01-14T10:04:09.700Z,94.10
2024-01-14T10:08:11.699Z,93.90
2024-01-14T10:12:15.239Z,93.50
2024-01-14T10:16:50.035Z,93.70
2024-01-14T10:20:40.079Z,93.70
2024-01-14T10:24:42.051Z,93.60
2024-01-14T10:28:44.068Z,94.00
2024-01-14T10:33:17.837Z,93.90
2024-01-14T10:37:09.266Z,94.00
2024-01-14T10:41:11.297Z,93.70
2024-01-14T10:45:13.403Z,93.40
2024-01-14T10:49:18.951Z,92.40
2024-01-14T10:53:24.430Z,92.30
2024-01-14T10:57:39.136Z,92.10
2024-01-14T11:01:50.813Z,92.40
2024-01-14T11:05:53.737Z,92.20
2024-01-14T11:09:56.432Z,92.10
2024-01-14T11:14:11.592Z,92.00
2024-01-14T11:18:20.971Z,92.20
2024-01-14T11:22:34.268Z,92.10
2024-01-14T11:26:39.844Z,92.00
2024-01-14T11:30:58.726Z,91.50
2024-01-14T11:35:03.802Z,91.80
2024-01-14T11:39:06.688Z,91.70
2024-01-14T11:43:09.426Z,92.10
2024-01-14T11:47:11.435Z,92.10
2024-01-14T11:51:14.795Z,91.40
2024-01-14T11:55:20.961Z,91.80
2024-01-14T11:59:34.675Z,91.90
2024-01-14T12:03:43.724Z,91.30
2024-01-14T12:07:46.131Z,91.70
2024-01-14T12:11:48.026Z,91.90
2024-01-14T12:15:55.939Z,91.50
2024-01-14T12:20:06.120Z,91.60
2024-01-14T12:24:08.397Z,91.50
2024-01-14T12:28:10.358Z,91.30
2024-01-14T12:32:13.030Z,91.70
2024-01-14T12:36:16.229Z,91.90
2024-01-14T12:40:18.441Z,92.00
2024-01-14T12:44:20.447Z,92.10
2024-01-14T12:48:25.448Z,91.80
2024-01-14T12:52:27.474Z,92.80
2024-01-14T12:56:30.037Z,92.80
2024-01-14T13:00:32.317Z,92.90
2024-01-14T13:04:35.423Z,92.80
2024-01-14T13:08:37.397Z,92.90
2024-01-14T13:12:40.986Z,93.30
2024-01-14T13:16:53.042Z,93.60
2024-01-14T13:20:56.826Z,93.50
2024-01-14T13:24:58.911Z,93.50
2024-01-14T13:29:01.071Z,93.50
2024-01-14T13:33:03.225Z,94.00
2024-01-14T13:37:05.723Z,94.10
2024-01-14T13:41:07.579Z,94.40
2024-01-14T13:45:13.057Z,94.20
2024-01-14T13:49:15.395Z,94.60
2024-01-14T13:53:19.642Z,94.30
2024-01-14T13:57:23.109Z,94.40
2024-01-14T14:01:25.350Z,94.60
2024-01-14T14:05:27.488Z,94.60
2024-01-14T14:09:29.757Z,94.30
2024-01-14T14:13:31.596Z,94.00
2024-01-14T14:17:33.641Z,94.00
2024-01-14T14:21:45.915Z,94.40
2024-01-14T14:25:57.075Z,94.30
2024-01-14T14:29:59.061Z,94.00
2024-01-14T14:34:01.206Z,94.00
2024-01-14T14:38:03.268Z,93.80
2024-01-14T14:42:05.436Z,94.00
2024-01-14T14:46:07.536Z,94.10
2024-01-14T14:50:10.082Z,93.90
2024-01-14T14:54:12.717Z,93.80
2024-01-14T14:58:16.200Z,93.90
2024-01-14T15:02:18.408Z,94.00
2024-01-14T15:06:20.473Z,93.70
2024-01-14T15:10:22.351Z,93.60
2024-01-14T15:14:24.232Z,93.60
2024-01-14T15:18:27.168Z,93.70
2024-01-14T15:22:29.119Z,93.70
2024-01-14T15:26:32.060Z,93.60
2024-01-14T15:30:34.263Z,93.70
2024-01-14T15:34:36.389Z,93.90
2024-01-14T15:38:38.440Z,94.00
2024-01-14T15:42:40.482Z,94.00
2024-01-14T15:46:42.534Z,93.90
2024-01-14T15:50:50.947Z,94.00
2024-01-14T15:54:59.382Z,94.20
2024-01-14T15:59:01.295Z,94.10
2024-01-14T16:03:03.760Z,94.30
2024-01-14T16:07:05.925Z,94.20
2024-01-14T16:11:09.694Z,94.30
2024-01-14T16:15:12.536Z,94.40
2024-01-14T16:19:15.924Z,94.20
2024-01-14T16:23:18.964Z,94.30
2024-01-14T16:27:21.838Z,94.30
2024-01-14T16:31:23.888Z,94.40
2024-01-14T16:35:27.871Z,94.20
2024-01-14T16:39:31.365Z,94.20
2024-01-14T16:43:34.202Z,94.40
2024-01-14T16:47:36.291Z,94.10
2024-01-14T16:51:38.199Z,94.10
2024-01-14T16:55:40.134Z,93.90
2024-01-14T16:59:42.046Z,93.80
2024-01-14T17:03:44.947Z,93.60
2024-01-14T17:07:47.679Z,93.50
2024-01-14T17:11:49.566Z,93.60
2024-01-14T17:16:00.606Z,93.60
2024-01-14T17:20:12.353Z,93.80
2024-01-14T17:24:14.309Z,93.60
2024-01-14T17:28:16.169Z,93.60
2024-01-14T17:32:18.093Z,93.40
2024-01-14T17:36:22.655Z,93.50
2024-01-14T17:40:24.735Z,93.50
2024-01-14T17:44:26.945Z,93.20
2024-01-14T17:48:29.915Z,93.20
2024-01-14T17:52:33.431Z,93.60
2024-01-14T17:56:36.715Z,93.40
2024-01-14T18:00:38.671Z,93.20
2024-01-14T18:04:41.925Z,93.10
2024-01-14T18:08:44.191Z,93.30
2024-01-14T18:12:48.982Z,93.50
2024-01-14T18:16:56.906Z,93.50
2024-01-14T18:21:01.462Z,93.60
2024-01-14T18:25:03.680Z,93.70
2024-01-14T18:29:05.583Z,93.60
2024-01-14T18:33:11.834Z,93.60
2024-01-14T18:37:15.734Z,93.70
2024-01-14T18:41:17.940Z,93.70
2024-01-14T18:45:19.785Z,93.70
2024-01-14T18:49:22.243Z,93.60
2024-01-14T18:53:24.422Z,93.50
2024-01-14T18:57:26.426Z,93.50
2024-01-14T19:01:28.417Z,93.40
2024-01-14T19:05:32.035Z,93.30
2024-01-14T19:09:34.481Z,93.50
2024-01-14T19:13:36.529Z,93.30
2024-01-14T19:17:38.624Z,93.40
2024-01-14T19:21:40.573Z,93.30
2024-01-14T19:25:42.582Z,93.40
2024-01-14T19:29:44.505Z,93.40
2024-01-14T19:33:46.927Z,93.50
2024-01-14T19:37:48.932Z,93.70
2024-01-14T19:41:50.740Z,93.90
2024-01-14T19:45:52.939Z,94.20
2024-01-14T19:49:54.896Z,94.30
2024-01-14T19:53:58.138Z,94.20
2024-01-14T19:58:00.603Z,93.90
2024-01-14T20:02:02.541Z,93.90
2024-01-14T20:06:04.722Z,94.00
2024-01-14T20:10:07.354Z,94.10
2024-01-14T20:14:09.730Z,94.10
2024-01-14T20:18:11.795Z,94.00
2024-01-14T20:22:13.795Z,94.10
2024-01-14T20:26:15.641Z,94.20
2024-01-14T20:30:17.995Z,94.10
2024-01-14T20:34:24.502Z,94.10
2024-01-14T20:38:26.879Z,94.00
2024-01-14T20:42:28.721Z,94.00
2024-01-14T20:46:30.626Z,93.80
2024-01-14T20:50:32.556Z,94.00
2024-01-14T20:54:35.573Z,94.20
2024-01-14T20:58:37.517Z,94.30
2024-01-14T21:02:41.607Z,94.10
2024-01-14T21:06:43.811Z,94.00
2024-01-14T21:10:45.824Z,93.90
2024-01-14T21:14:47.597Z,93.70
2024-01-14T21:18:49.665Z,94.00
2024-01-14T21:22:51.551Z,94.10
2024-01-14T21:26:53.437Z,94.30
2024-01-14T21:30:55.787Z,94.50
2024-01-14T21:34:57.659Z,94.30
2024-01-14T21:38:59.577Z,94.30
2024-01-14T21:43:01.406Z,94.10
2024-01-14T21:47:03.265Z,93.90
2024-01-14T21:51:05.422Z,93.40
2024-01-14T21:55:07.431Z,94.70
2024-01-14T21:59:09.305Z,96.10
2024-01-14T22:03:11.453Z,97.00
2024-01-14T22:07:13.630Z,97.50
2024-01-14T22:11:15.544Z,97.80
2024-01-14T22:15:18.392Z,97.70
2024-01-14T22:19:21.435Z,98.60
2024-01-14T22:23:23.354Z,97.90
2024-01-14T22:27:25.483Z,96.70
2024-01-14T22:31:27.936Z,96.10
2024-01-14T22:35:30.721Z,96.00
2024-01-14T22:39:32.967Z,96.40
2024-01-14T22:43:35.670Z,96.90
2024-01-14T22:47:37.569Z,96.80
2024-01-14T22:51:43.853Z,98.40
2024-01-14T22:55:45.754Z,99.30
2024-01-14T22:59:47.624Z,98.80
2024-01-14T23:03:50.549Z,97.90
2024-01-14T23:07:52.524Z,96.80
2024-01-14T23:11:54.533Z,97.80
2024-01-14T23:15:56.588Z,97.00
2024-01-14T23:19:58.549Z,96.70
2024-01-14T23:24:00.527Z,96.10
2024-01-14T23:28:04.063Z,95.80
2024-01-14T23:32:06.261Z,95.70
2024-01-14T23:36:08.435Z,95.70
2024-01-14T23:40:10.618Z,95.60
2024-01-14T23:44:12.586Z,95.70
2024-01-14T23:48:15.561Z,95.70
2024-01-14T23:52:17.701Z,95.60
2024-01-14T23:56:19.662Z,95.40
